ポルト・アレグレ の空港の天気 - METARとTAF

ポルト・アレグレ国際空港 ( SBPA / POA ) - ブラジル リオグランデ・ド・スル州ポルト・アレグレ
飛行場実況気象(Metar)
観測時間10/18 00:00 BRT (10/18 03:00 UTC)
風向・風速東 2m/s
視程10km以上
天気現象
なし
気温23℃
湿度89%
気圧1009hPa
METARSBPA 180300Z 10004KT CAVOK 23/21 Q1009
過去の天気等 Google飛行場航空写真 Wunderground天気予報

過去48時間のMETAR

飛行場予報(TAF)
発表時間: 10/17 18:00 BRT (10/17 21:00 UTC)
予報対象時間: 17日21時 BRT ~ 18日21時 BRT
風向・風速東 3m/s
視程10km以上
少しの雲 雲底高度 1220m
18日1時 BRT ~ 18日5時 BRT に 確率 40% で一時的に
視程6000m
天気現象雷雨
全天の4割程度の雲 雲底高度 910m
少しの積乱雲 雲底高度 910m
18日5時 BRT から 確率 40% で
全天の8割程度の雲 雲底高度 370m
18日15時 BRT ~ 18日18時 BRT に 確率 40% で一時的に
視程4000m
天気現象雷雨
全天の4割程度の雲 雲底高度 300m
全天の8割程度の雲 雲底高度 m
18日18時 BRT ~ 18日20時 BRT に徐々に
風向・風速南南東 4m/s
全天の8割程度の雲 雲底高度 610m
TAF SBPA 172100Z 1800/1824 10006KT 9999 FEW040 TN21/1808Z TX27/1818Z
PROB40 TEMPO 1804/1808 6000 TSRA SCT030 FEW030CB
PROB40 1808/1810 BKN012 BE CMG 1810/1812 31008KT BKN030
PROB40 TEMPO 1818/1821 4000 TSRA SCT010 BKN 020 FEW030CB
BECMG 1821/1823 16008KT BKN020 RMK PDJ